AirNav   Air Wisconsin pilot careers
 
 1653 users online  

L31 St Tammany Regional Airport
Covington, Louisiana, USA

GOING TO COVINGTON?


FAA INFORMATION EFFECTIVE 16 AUGUST 2018

Location

FAA Identifier: L31
Lat/Long: 30-26-42.1950N / 089-59-19.9640W
30-26.703250N / 089-59.332733W
30.4450542 / -89.9888789
(estimated)
Elevation: 39 ft. / 11.9 m (surveyed)
Variation: 02E (1995)
From city: 6 miles SE of COVINGTON, LA
Time zone: UTC -5 (UTC -6 during Standard Time)
Zip code: 70471

Airport Operations

Airport use: Open to the public
Activation date: 02/1971
Control tower: no
ARTCC: HOUSTON CENTER
FSS: DE RIDDER FLIGHT SERVICE STATION
NOTAMs facility: DRI (NOTAM-D service available)
Attendance: MON-FRI 0800-1500
Wind indicator: lighted
Segmented circle: no
Lights: DUSK-DAWN. MIRL RY 18/36 PRESET MED INTST.
Beacon: white-green (lighted land airport)
Operates sunset to sunrise.

Airport Communications

CTAF/UNICOM: 122.8
NEW ORLEANS APPROACH: 133.15
NEW ORLEANS DEPARTURE: 133.15
WX ASOS at ASD (11 nm SE): 132.475 (985-643-7263)
WX AWOS-3PT at MJD (18 nm E): 119.075 (601-798-4136)

Nearby radio navigation aids

VOR radial/distance  VOR name  Freq  Var
PCUr237/15.1PICAYUNE VOR/DME112.2005E
HMUr101/(22.6)HAMMOND VOR109.6000E
HRVr359/35.7HARVEY VORTAC114.1002E
RQRr053/37.8RESERVE VOR/DME110.8002E

 
NDB name  Hdg/Dist  Freq  Var  ID
BOGALUSA194/27.035300WGVB --. ...- -...

Airport Services

Fuel available: 100LL
SELF SERVICE FUEL AVBL 24 HRS WITH CREDIT CARD.
Parking: hangars and tiedowns
Airframe service: MINOR
Powerplant service: MINOR

Runway Information

Runway 18/36

Dimensions: 2999 x 75 ft. / 914 x 23 m
Surface: asphalt, in fair condition
Weight bearing capacity: 
Single wheel: 17.5
Runway edge lights: medium intensity
Runway edge markings: MARKINGS FADED
RUNWAY 18  RUNWAY 36
Latitude: 30-26.950717N30-26.455950N
Longitude: 089-59.334133W089-59.333033W
Elevation: 39.0 ft.38.0 ft.
Traffic pattern: leftleft
Runway heading: 178 magnetic, 180 true358 magnetic, 360 true
Markings: nonprecision, in poor conditionnonprecision, in poor condition
Touchdown point: yes, no lightsyes, no lights
Obstructions: 70 ft. trees, 1241 ft. from runway, 22:1 slope to clear78 ft. trees, 2004 ft. from runway, 22:1 slope to clear

Airport Ownership and Management from official FAA records

Ownership: Publicly-owned
Owner: ST TAMMANY PARISH
PO BOX 628
COVINGTON, LA 70434
Phone 985-898-2362
Manager: BRUCE CROUCH
PO BOX 628
COVINGTON, LA 70434
Phone (985) 898-2792

Airport Operational Statistics

Aircraft based on the field: 16
Single engine airplanes: 13
Multi engine airplanes: 3
    
Aircraft operations: avg 70/day *
59% local general aviation
39% transient general aviation
2% air taxi
<1% military
* for 12-month period ending 20 March 2017

Additional Remarks

FOR CD CTC MSY APCH AT 504-471-4350.

Instrument Procedures

There are no published instrument procedures at L31.

Some nearby airports with instrument procedures:

KASD - Slidell Airport (11 nm SE)
KMJD - Picayune Municipal Airport (18 nm E)
KHDC - Hammond Northshore Regional Airport (23 nm W)
KBXA - George R Carr Memorial Air Field (23 nm N)
KNEW - Lakefront Airport (24 nm S)
 
Loc | Ops | Rwys | IFR | FBO | Links
Com | Nav | Svcs | Stats | Notes


 
Area around L31 (St Tammany Regional Airport)
 
Road maps at: MapQuest Bing Google
 
Aerial photo
WARNING: Photo may not be current or correct
Aerial photo of L31 (St Tammany Regional Airport)
Photo by J. Shaw
Photo taken 27-May-2011
looking northeast.

Do you have a better or more recent aerial photo of St Tammany Regional Airport that you would like to share? If so, please send us your photo.

 
Sectional chart

 
Airport distance calculator
Flying to St Tammany Regional Airport? Find the distance to fly.

From to L31

Sunrise and sunset
Times for 21-Aug-2018
 Local
(UTC-5)
 Zulu
(UTC)
Morning civil twilight06:0611:06
Sunrise06:3111:31
Sunset19:3500:35
Evening civil twilight20:0001:00

Current date and time
Zulu (UTC)  21-Aug-2018 14:29:06
Local (UTC-5)  21-Aug-2018 09:29:06
 
METAR
KASD 
16nm SE 
211404Z AUTO VRB06KT 10SM SCT015 BKN020 BKN025 29/25 A3006 RMK AO2 T02940250
KHDC 
23nm W 
211415Z AUTO 27007KT CLR 29/25 A3007 RMK AO2 PWINO
KBXA 
23nm N 
211415Z AUTO 28009KT 230V300 10SM BKN014 29/25 A3007 RMK AO2 T02910250
KNEW 
24nm S 
211353Z 25009KT 10SM CLR 29/26 A3007 RMK AO2 SLP177 T02940256
KHSA 
28nm E 
211350Z 23003KT 7SM SCT040 27/26 A3006
KMSY 
30nm SW 
211353Z 28005KT 10SM FEW025 BKN160 BKN250 28/27 A3007 RMK AO2 SLP187 T02830267
K7N0 
30nm S 
211356Z AUTO VRB05KT 10SM CLR 29/24 A3009 RMK AO2 SLP187 T02940244
TAF
KASD 
16nm SE 
211120Z 2112/2212 21004KT P6SM SCT028 FM211400 26005KT P6SM VCTS FEW010CB SCT100 FM211700 27006KT P6SM VCTS SCT025CB BKN090 FM212100 25005KT P6SM SCT025 BKN100 PROB30 2121/2124 4SM -TSRA BKN020CB
NOTAMs
Click for the latest NOTAMs
NOTAMs are issued by the DoD/FAA and will open in a separate window not controlled by AirNav.

 

 
 

FBO, Fuel Providers, and Aircraft Ground Support

  
 Business Name 
 
 Contact 
 
 Services / Description 
 
Fuel Prices
 
Comments
  
St. Tammany Parish Government 985-875-2601
no information available

If you are affiliated with St. Tammany Parish Government and would like to show here your services, contact info, web link, logo, and more, click here
100LL
SS $4.75 
 Updated 09-Aug-2018
 
   write
SS=Self service
Update Fuel Prices
 

Would you like to see your business listed on this page?

 If your business provides an interesting product or service to pilots, flight crews, aircraft, or users of the St Tammany Regional Airport, you should consider listing it here.  To start the listing process, click on the button below
 
Add a business
 

Other Pages about St Tammany Regional Airport

Update a link
 
Copyright © AirNav, LLC. All rights reserved. Privacy Policy  Contact